Time;durP1;ratioP1;P1;durP2;ratioP2;P2;SDS_P1;SDS_P2;PMS_P1;PMS_P2;Temp;Humidity;BMP_temperature;BMP_pressure;BME280_temperature;BME280_humidity;BME280_pressure;Samples;Min_cycle;Max_cycle;Signal;HPM_P1;HPM_P2
2020/12/26 00:02:10;;;;;;;29.42;20.50;;;205.40;2227.20;;;;;;5072314;28;20090;-56
2020/12/26 00:04:36;;;;;;;27.48;17.50;;;205.40;2252.80;;;;;;5072745;28;20036;-56
2020/12/26 00:07:04;;;;;;;22.00;16.17;;;205.40;2227.20;;;;;;5072307;28;20043;-56
2020/12/26 00:09:29;;;;;;;25.02;17.58;;;205.00;2252.80;;;;;;5072075;28;20355;-56
2020/12/26 00:11:55;;;;;;;25.27;17.40;;;205.00;2252.80;;;;;;5072416;28;20027;-55
2020/12/26 00:14:27;;;;;;;23.42;16.70;;;205.00;2252.80;;;;;;5072495;28;20096;-55
2020/12/26 00:16:53;;;;;;;24.13;17.77;;;205.10;2252.80;;;;;;5072304;28;20029;-56
2020/12/26 00:19:18;;;;;;;24.63;17.33;;;204.80;2252.80;;;;;;5071882;28;20127;-56
2020/12/26 00:21:44;;;;;;;25.38;17.67;;;204.80;2252.80;;;;;;5072102;28;20112;-57
2020/12/26 00:24:10;;;;;;;21.65;17.10;;;204.80;2252.80;;;;;;5054338;28;20048;-58
2020/12/26 00:26:35;;;;;;;31.80;21.42;;;180.10;2252.80;;;;;;5072035;28;20025;-58
2020/12/26 00:29:01;;;;;;;27.08;19.60;;;204.80;2252.80;;;;;;5072576;28;20036;-55
2020/12/26 00:31:27;;;;;;;27.45;19.08;;;205.00;2252.80;;;;;;5071808;28;20486;-55
2020/12/26 00:33:52;;;;;;;22.45;17.15;;;205.00;2252.80;;;;;;5072000;28;20063;-56
2020/12/26 00:36:18;;;;;;;21.35;15.88;;;205.10;2252.80;;;;;;5072256;28;20028;-56
2020/12/26 00:38:43;;;;;;;21.42;15.43;;;205.20;2252.80;;;;;;5071848;28;20025;-56
2020/12/26 00:41:14;;;;;;;25.92;16.42;;;205.30;2227.20;;;;;;5071775;28;20021;-58
2020/12/26 00:43:40;;;;;;;23.67;16.52;;;204.80;2227.20;;;;;;5071114;28;20029;-58
2020/12/26 00:46:05;;;;;;;22.35;15.80;;;204.80;2252.80;;;;;;5072097;28;20016;-59
2020/12/26 00:48:31;;;;;;;23.08;17.77;;;204.80;2252.80;;;;;;5071774;28;20035;-55
2020/12/26 00:50:57;;;;;;;23.35;15.43;;;205.00;2252.80;;;;;;5072047;28;20113;-57
2020/12/26 00:53:23;;;;;;;22.95;16.80;;;204.90;2252.80;;;;;;5072280;28;20117;-56
2020/12/26 00:55:48;;;;;;;22.50;15.93;;;205.00;2252.80;;;;;;5072320;28;20481;-58
2020/12/26 00:58:14;;;;;;;22.85;16.23;;;205.10;2252.80;;;;;;5072074;28;20120;-59
2020/12/26 01:00:40;;;;;;;26.33;16.25;;;205.10;2227.20;;;;;;5072741;28;20020;-57
2020/12/26 01:03:05;;;;;;;23.00;16.08;;;205.10;2227.20;;;;;;5072750;28;20037;-57
2020/12/26 01:05:31;;;;;;;28.15;18.08;;;205.00;2227.20;;;;;;5071972;28;20446;-65
2020/12/26 01:07:56;;;;;;;29.13;18.60;;;205.20;2252.80;;;;;;5071925;28;20082;-56
2020/12/26 01:10:22;;;;;;;26.98;19.00;;;205.30;2252.80;;;;;;5072361;28;20025;-57
2020/12/26 01:12:49;;;;;;;26.08;18.35;;;205.40;2227.20;;;;;;5075902;28;20012;-59
2020/12/26 01:15:15;;;;;;;24.98;16.73;;;205.40;2227.20;;;;;;5076476;28;20085;-57
2020/12/26 01:17:42;;;;;;;24.02;15.35;;;205.30;2201.60;;;;;;5076045;28;20033;-56
2020/12/26 01:20:08;;;;;;;23.30;15.90;;;205.40;2176.00;;;;;;5076157;28;20081;-57
2020/12/26 01:22:37;;;;;;;23.15;17.10;;;205.20;2176.00;;;;;;5075880;28;20032;-58
2020/12/26 01:25:06;;;;;;;25.55;16.92;;;205.20;2227.20;;;;;;5076532;28;20476;-60
2020/12/26 01:27:32;;;;;;;23.98;16.38;;;205.10;2227.20;;;;;;5075783;28;20037;-60
2020/12/26 01:29:57;;;;;;;26.25;18.00;;;205.20;2227.20;;;;;;5057893;28;20036;-65
2020/12/26 01:32:27;;;;;;;28.70;17.98;;;205.10;2227.20;;;;;;5075776;28;20021;-60
2020/12/26 01:34:56;;;;;;;31.30;18.98;;;205.10;2227.20;;;;;;5076033;28;20366;-65
2020/12/26 01:37:22;;;;;;;30.50;20.25;;;204.90;2252.80;;;;;;5075592;28;20067;-63
2020/12/26 01:39:48;;;;;;;30.05;20.65;;;205.00;2252.80;;;;;;5075877;28;20055;-57
2020/12/26 01:42:13;;;;;;;26.10;18.73;;;204.80;2252.80;;;;;;5075548;28;20032;-60
2020/12/26 01:44:39;;;;;;;30.25;18.83;;;205.10;2252.80;;;;;;5075632;28;20028;-63
2020/12/26 01:47:06;;;;;;;29.67;19.55;;;205.10;2252.80;;;;;;5075871;28;20025;-60
2020/12/26 01:49:32;;;;;;;27.38;19.92;;;205.20;2252.80;;;;;;5074440;28;20028;-60
2020/12/26 01:51:58;;;;;;;29.42;20.27;;;205.30;2252.80;;;;;;5075267;28;20170;-61
2020/12/26 01:54:25;;;;;;;27.45;18.73;;;205.40;2227.20;;;;;;5075519;28;20032;-59
2020/12/26 01:56:51;;;;;;;25.02;18.10;;;205.40;2201.60;;;;;;5074894;28;20565;-60
2020/12/26 01:59:17;;;;;;;25.50;17.85;;;205.10;2227.20;;;;;;5075535;28;20040;-61
2020/12/26 02:01:43;;;;;;;26.02;18.63;;;204.90;2252.80;;;;;;5075303;28;20084;-57
2020/12/26 02:04:12;;;;;;;28.52;18.23;;;205.10;2252.80;;;;;;5075454;28;20074;-58
2020/12/26 02:06:42;;;;;;;26.70;18.48;;;205.20;2227.20;;;;;;5065672;28;20088;-62
2020/12/26 02:09:08;;;;;;;25.70;18.40;;;205.30;2176.00;;;;;;5068132;28;20086;-55
2020/12/26 02:11:33;;;;;;;28.35;18.67;;;205.20;2227.20;;;;;;5074911;28;20032;-58
2020/12/26 02:13:59;;;;;;;25.73;18.70;;;205.40;2227.20;;;;;;5075426;28;20024;-58
2020/12/26 02:16:25;;;;;;;26.15;19.10;;;205.40;2227.20;;;;;;5056706;28;20032;-58
2020/12/26 02:18:51;;;;;;;29.48;20.23;;;205.30;2176.00;;;;;;5075252;28;20017;-56
2020/12/26 02:21:18;;;;;;;24.73;17.73;;;205.10;2201.60;;;;;;5074852;28;20123;-56
2020/12/26 02:23:45;;;;;;;27.95;18.95;;;205.10;2150.40;;;;;;5073876;28;20059;-54
2020/12/26 02:26:11;;;;;;;27.60;18.65;;;205.00;2227.20;;;;;;5073680;28;20021;-57
2020/12/26 02:28:37;;;;;;;25.60;17.90;;;205.20;2176.00;;;;;;5073996;28;20037;-57
2020/12/26 02:31:04;;;;;;;25.45;17.95;;;205.30;2124.80;;;;;;5074027;28;20388;-57
2020/12/26 02:33:31;;;;;;;26.08;18.58;;;205.20;2124.80;;;;;;5073773;28;20020;-58
2020/12/26 02:35:57;;;;;;;23.30;18.20;;;205.20;2150.40;;;;;;5074227;28;20032;-58
2020/12/26 02:38:22;;;;;;;27.90;17.77;;;205.00;2176.00;;;;;;5074453;28;20024;-58
2020/12/26 02:40:49;;;;;;;27.75;18.98;;;180.10;2176.00;;;;;;5074867;28;20158;-55
2020/12/26 02:43:25;;;;;;;24.65;17.95;;;204.90;2176.00;;;;;;5074045;28;20039;-55
2020/12/26 02:45:55;;;;;;;28.77;19.35;;;204.90;2150.40;;;;;;5074859;28;20095;-59
2020/12/26 02:48:24;;;;;;;28.13;18.38;;;179.90;2227.20;;;;;;5073220;28;20040;-57
2020/12/26 02:50:50;;;;;;;28.05;19.15;;;180.00;2252.80;;;;;;5074139;28;20012;-61
2020/12/26 02:53:16;;;;;;;28.00;19.60;;;179.90;2252.80;;;;;;5074205;28;20444;-60
2020/12/26 02:55:42;;;;;;;27.83;19.42;;;180.00;2227.20;;;;;;5074340;28;20020;-58
2020/12/26 02:58:07;;;;;;;30.52;20.10;;;180.10;2201.60;;;;;;5074157;28;20106;-52
2020/12/26 03:00:33;;;;;;;30.73;19.90;;;180.10;2227.20;;;;;;5074450;28;20031;-52
2020/12/26 03:02:59;;;;;;;28.75;20.30;;;180.10;2227.20;;;;;;5074288;28;20493;-52
2020/12/26 03:05:25;;;;;;;26.80;19.63;;;180.10;2201.60;;;;;;5074074;28;20102;-54
2020/12/26 03:07:51;;;;;;;37.08;20.98;;;180.10;2227.20;;;;;;5073796;28;20103;-54
2020/12/26 03:10:17;;;;;;;31.75;21.73;;;204.80;2201.60;;;;;;5073813;28;20021;-53
2020/12/26 03:12:43;;;;;;;29.90;20.77;;;180.10;2227.20;;;;;;5073943;28;20036;-53
2020/12/26 03:15:09;;;;;;;27.55;18.63;;;180.00;2201.60;;;;;;5074256;28;20037;-52
2020/12/26 03:17:34;;;;;;;29.48;20.00;;;180.00;2227.20;;;;;;5073888;28;20107;-54
2020/12/26 03:20:00;;;;;;;28.50;20.98;;;180.00;2252.80;;;;;;5073608;28;20108;-54
2020/12/26 03:22:27;;;;;;;28.85;20.52;;;180.00;2227.20;;;;;;5073676;28;20127;-53
2020/12/26 03:24:56;;;;;;;30.52;21.25;;;180.00;2201.60;;;;;;5074226;28;20024;-54
2020/12/26 03:27:22;;;;;;;32.47;20.63;;;180.00;2227.20;;;;;;5073625;28;20025;-54
2020/12/26 03:29:48;;;;;;;34.20;22.52;;;180.10;2201.60;;;;;;5073623;28;20102;-54
2020/12/26 03:32:14;;;;;;;32.17;20.85;;;180.00;2227.20;;;;;;5073477;28;20027;-54
2020/12/26 03:34:40;;;;;;;30.33;20.73;;;180.10;2227.20;;;;;;5072741;28;20021;-54
2020/12/26 03:37:06;;;;;;;32.15;21.85;;;180.10;2201.60;;;;;;5073306;28;20103;-55
2020/12/26 03:39:35;;;;;;;33.28;22.05;;;180.00;2201.60;;;;;;5073237;28;20091;-55
2020/12/26 03:42:12;;;;;;;29.83;19.33;;;179.70;2252.80;;;;;;5073083;28;20054;-55
2020/12/26 03:44:39;;;;;;;27.23;19.58;;;179.90;2252.80;;;;;;5073647;28;20052;-54
2020/12/26 03:47:06;;;;;;;30.63;20.45;;;180.00;2227.20;;;;;;5073435;28;20100;-54
2020/12/26 03:49:32;;;;;;;31.17;20.98;;;180.10;2227.20;;;;;;5073174;28;20119;-55
2020/12/26 03:51:57;;;;;;;34.20;21.58;;;180.10;2201.60;;;;;;5073213;28;20550;-56
2020/12/26 03:54:23;;;;;;;34.42;21.98;;;179.90;2252.80;;;;;;5073328;28;20111;-54
2020/12/26 03:56:49;;;;;;;30.85;19.70;;;180.00;2252.80;;;;;;5072894;28;20036;-54
2020/12/26 03:59:14;;;;;;;32.13;21.33;;;179.90;2227.20;;;;;;5073064;28;20451;-56
2020/12/26 04:01:40;;;;;;;33.97;22.67;;;179.70;2252.80;;;;;;5072605;28;20466;-55
2020/12/26 04:04:06;;;;;;;33.33;22.30;;;179.70;2252.80;;;;;;5073185;28;20037;-54
2020/12/26 04:06:32;;;;;;;36.92;22.77;;;179.60;2252.80;;;;;;5072410;28;20036;-55
2020/12/26 04:08:58;;;;;;;31.67;21.58;;;179.40;2252.80;;;;;;5072822;28;20095;-55
2020/12/26 04:11:24;;;;;;;38.10;24.13;;;179.30;2252.80;;;;;;5072761;28;20105;-56
2020/12/26 04:13:50;;;;;;;35.40;21.98;;;154.50;2252.80;;;;;;5072814;28;20033;-59
2020/12/26 04:16:16;;;;;;;36.28;21.90;;;154.50;2252.80;;;;;;5072417;28;20031;-53
2020/12/26 04:18:41;;;;;;;32.58;22.67;;;154.30;2252.80;;;;;;5072902;28;20085;-54
2020/12/26 04:21:07;;;;;;;36.72;23.02;;;154.50;2252.80;;;;;;5072725;28;20374;-54
2020/12/26 04:23:33;;;;;;;33.97;22.45;;;154.30;2252.80;;;;;;5072723;28;20530;-58
2020/12/26 04:25:59;;;;;;;37.33;23.42;;;154.40;2252.80;;;;;;5072521;28;20032;-59
2020/12/26 04:28:25;;;;;;;37.63;22.90;;;154.20;2252.80;;;;;;5072093;28;20116;-57
2020/12/26 04:30:51;;;;;;;40.35;22.88;;;154.20;2252.80;;;;;;5072927;28;20056;-54
2020/12/26 04:33:17;;;;;;;38.63;23.55;;;154.30;2252.80;;;;;;5072480;28;20074;-55
2020/12/26 04:35:43;;;;;;;29.98;20.65;;;154.00;2252.80;;;;;;5072471;28;20031;-55
2020/12/26 04:38:08;;;;;;;37.72;23.38;;;154.40;2252.80;;;;;;5072278;28;20111;-55
2020/12/26 04:40:35;;;;;;;34.42;22.05;;;179.20;2252.80;;;;;;5072472;28;20021;-54
2020/12/26 04:43:01;;;;;;;36.22;21.77;;;179.20;2252.80;;;;;;5072145;28;20059;-55
2020/12/26 04:45:27;;;;;;;37.38;21.85;;;179.30;2252.80;;;;;;5071964;28;20116;-54
2020/12/26 04:48:01;;;;;;;35.50;22.30;;;179.40;2252.80;;;;;;5072600;28;20111;-60
2020/12/26 04:50:33;;;;;;;38.67;22.85;;;154.50;2252.80;;;;;;5072425;28;20024;-58
2020/12/26 04:53:01;;;;;;;34.28;22.02;;;179.20;2252.80;;;;;;5061058;28;20031;-54
2020/12/26 04:55:29;;;;;;;41.97;23.23;;;154.50;2252.80;;;;;;5072320;28;20087;-54
2020/12/26 04:58:07;;;;;;;39.15;22.65;;;154.50;2252.80;;;;;;5071815;28;20085;-54
2020/12/26 05:00:34;;;;;;;37.00;21.55;;;154.50;2252.80;;;;;;5073025;28;20024;-56
2020/12/26 05:03:10;;;;;;;40.40;22.85;;;154.30;2252.80;;;;;;5072590;28;20044;-54
2020/12/26 05:05:41;;;;;;;38.05;21.52;;;154.30;2252.80;;;;;;5069543;28;20044;-56
2020/12/26 05:08:12;;;;;;;40.60;23.83;;;154.50;2252.80;;;;;;5071690;28;20037;-54
2020/12/26 05:10:40;;;;;;;32.85;20.50;;;154.50;2252.80;;;;;;5072331;28;20416;-54
2020/12/26 05:13:07;;;;;;;38.10;21.65;;;179.40;2252.80;;;;;;5072100;28;20029;-54
2020/12/26 05:15:34;;;;;;;37.10;21.05;;;154.50;2252.80;;;;;;5072153;28;20032;-54
2020/12/26 05:18:01;;;;;;;39.58;21.55;;;154.40;2252.80;;;;;;5072050;28;20024;-57
2020/12/26 05:20:27;;;;;;;41.65;21.38;;;154.40;2252.80;;;;;;5072396;28;20449;-54
2020/12/26 05:23:09;;;;;;;35.22;21.55;;;154.40;2252.80;;;;;;5071779;28;20037;-53
2020/12/26 05:25:53;;;;;;;34.15;19.73;;;179.40;2252.80;;;;;;5059365;28;20032;-54
2020/12/26 05:28:19;;;;;;;34.70;20.38;;;179.30;2252.80;;;;;;5072005;28;20025;-57
2020/12/26 05:30:47;;;;;;;30.20;19.05;;;179.50;2252.80;;;;;;5072303;28;20016;-59
2020/12/26 05:33:13;;;;;;;32.22;17.95;;;179.70;2252.80;;;;;;5071620;28;20031;-57
2020/12/26 05:35:47;;;;;;;31.55;18.45;;;179.80;2252.80;;;;;;5072005;28;20434;-58
2020/12/26 05:38:25;;;;;;;27.70;17.60;;;179.50;2252.80;;;;;;5070568;28;20124;-61
2020/12/26 05:40:53;;;;;;;29.50;16.48;;;179.30;2252.80;;;;;;5057819;28;20024;-54
2020/12/26 05:43:27;;;;;;;23.92;16.08;;;179.30;2252.80;;;;;;5069508;28;20037;-54
2020/12/26 05:45:53;;;;;;;24.42;15.13;;;154.50;2252.80;;;;;;5071818;28;20103;-54
2020/12/26 05:48:24;;;;;;;25.35;14.85;;;154.50;2252.80;;;;;;5072166;28;20116;-55
2020/12/26 05:50:58;;;;;;;26.52;15.52;;;154.10;2252.80;;;;;;5071733;28;20549;-54
2020/12/26 05:53:27;;;;;;;26.90;15.20;;;153.90;2252.80;;;;;;5071886;28;20526;-53
2020/12/26 05:55:54;;;;;;;24.83;14.77;;;153.80;2252.80;;;;;;5072279;28;20029;-53
2020/12/26 05:58:21;;;;;;;27.23;16.08;;;153.80;2252.80;;;;;;5072841;28;20107;-55
2020/12/26 06:00:47;;;;;;;24.63;13.82;;;153.60;2252.80;;;;;;5075125;28;20032;-54
2020/12/26 06:03:40;;;;;;;23.20;13.90;;;153.70;2252.80;;;;;;5074944;28;20041;-54
2020/12/26 06:06:06;;;;;;;21.30;13.05;;;153.90;2252.80;;;;;;5071506;28;20048;-56
2020/12/26 06:08:32;;;;;;;23.27;13.40;;;154.10;2252.80;;;;;;5075707;28;20065;-54
2020/12/26 06:11:03;;;;;;;24.52;13.27;;;154.10;2252.80;;;;;;5074868;28;20025;-53
2020/12/26 06:13:32;;;;;;;24.90;12.60;;;154.00;2252.80;;;;;;5075117;28;20028;-54
2020/12/26 06:16:20;;;;;;;24.48;12.30;;;153.90;2252.80;;;;;;5075138;28;20113;-53
2020/12/26 06:18:59;;;;;;;22.23;11.27;;;154.00;2252.80;;;;;;5074989;28;20363;-54
2020/12/26 06:21:26;;;;;;;21.38;12.52;;;154.10;2252.80;;;;;;5056955;28;20104;-54
2020/12/26 06:23:53;;;;;;;22.30;12.93;;;154.10;2252.80;;;;;;5075520;28;20029;-53
2020/12/26 06:26:19;;;;;;;23.70;12.15;;;153.80;2252.80;;;;;;5074649;28;20032;-53
2020/12/26 06:28:46;;;;;;;23.27;13.20;;;153.70;2252.80;;;;;;5075255;28;20052;-54
2020/12/26 06:31:15;;;;;;;20.80;12.40;;;128.90;2252.80;;;;;;5074534;28;20024;-53
2020/12/26 06:33:41;;;;;;;;;;;128.60;2252.80;;;;;;5075584;28;20515;-54
2020/12/26 06:36:08;;;;;;;19.80;11.95;;;128.30;2252.80;;;;;;5074837;28;19956;-58
2020/12/26 06:38:34;;;;;;;23.90;13.27;;;128.30;2252.80;;;;;;5074614;28;20027;-54
2020/12/26 06:41:14;;;;;;;24.73;13.02;;;128.40;2252.80;;;;;;5075038;28;20025;-54
2020/12/26 06:43:43;;;;;;;27.80;13.27;;;128.70;2252.80;;;;;;5074706;28;20111;-54
2020/12/26 06:46:14;;;;;;;25.40;13.55;;;128.80;2252.80;;;;;;5074232;28;20082;-61
2020/12/26 06:48:41;;;;;;;21.27;13.82;;;128.50;2252.80;;;;;;5075138;28;20067;-55
2020/12/26 06:51:33;;;;;;;24.02;13.57;;;128.50;2252.80;;;;;;5074716;28;20033;-55
2020/12/26 06:54:01;;;;;;;20.20;11.75;;;128.60;2252.80;;;;;;4973394;28;20085;-63
2020/12/26 06:56:36;;;;;;;21.20;12.18;;;128.90;2252.80;;;;;;4973113;28;20066;-57
2020/12/26 06:59:11;;;;;;;20.02;11.30;;;128.60;2252.80;;;;;;4973469;28;20508;-57
2020/12/26 07:01:38;;;;;;;19.25;11.65;;;128.60;2252.80;;;;;;4973332;28;20146;-64
2020/12/26 07:04:20;;;;;;;21.73;12.05;;;128.80;2252.80;;;;;;4973148;28;20431;-62
2020/12/26 07:06:52;;;;;;;19.75;12.05;;;128.50;2252.80;;;;;;4972975;28;20464;-62
2020/12/26 07:09:18;;;;;;;23.02;12.65;;;128.50;2252.80;;;;;;4973340;28;20484;-61
2020/12/26 07:11:49;;;;;;;21.65;13.18;;;128.60;2252.80;;;;;;4972884;28;20039;-63
2020/12/26 07:14:51;;;;;;;21.75;12.60;;;128.60;2252.80;;;;;;4973135;28;20066;-64
2020/12/26 07:17:26;;;;;;;21.25;12.35;;;128.80;2252.80;;;;;;4915507;29;20747;-62
2020/12/26 07:19:53;;;;;;;21.80;12.88;;;128.60;2252.80;;;;;;4915820;29;20071;-62
2020/12/26 07:22:23;;;;;;;22.42;13.35;;;128.80;2252.80;;;;;;4915131;29;20043;-67
2020/12/26 07:24:52;;;;;;;22.80;14.55;;;128.90;2252.80;;;;;;4915546;29;20040;-61
2020/12/26 07:27:18;;;;;;;21.15;11.75;;;128.90;2252.80;;;;;;4915173;29;20039;-59
2020/12/26 07:30:18;;;;;;;24.10;13.00;;;153.70;2252.80;;;;;;4921140;28;20029;-64
2020/12/26 07:32:47;;;;;;;24.60;13.50;;;128.90;2252.80;;;;;;5010571;28;20412;-62
2020/12/26 07:35:13;;;;;;;24.05;13.07;;;128.80;2252.80;;;;;;5011963;28;20065;-56
2020/12/26 07:37:40;;;;;;;25.05;13.07;;;128.70;2252.80;;;;;;5011682;28;20058;-59
2020/12/26 07:40:07;;;;;;;25.50;15.63;;;128.40;2252.80;;;;;;5011599;28;20025;-60
2020/12/26 07:42:34;;;;;;;24.90;14.38;;;128.80;2252.80;;;;;;5011414;28;20527;-60
2020/12/26 07:45:09;;;;;;;23.98;12.82;;;128.90;2252.80;;;;;;5011763;28;20034;-64
2020/12/26 07:47:40;;;;;;;26.15;14.90;;;128.70;2252.80;;;;;;5011589;28;20026;-59
2020/12/26 07:50:06;;;;;;;24.33;14.15;;;153.60;2252.80;;;;;;5011376;28;20559;-57
2020/12/26 07:52:31;;;;;;;28.08;15.88;;;153.70;2252.80;;;;;;5027896;28;20112;-66
2020/12/26 07:55:01;;;;;;;27.30;15.00;;;154.00;2252.80;;;;;;5069472;28;20028;-61
2020/12/26 07:57:27;;;;;;;26.75;15.38;;;153.90;2252.80;;;;;;5073043;28;20371;-62
2020/12/26 07:59:53;;;;;;;24.52;14.25;;;154.20;2227.20;;;;;;5072715;28;20028;-64
2020/12/26 08:02:19;;;;;;;23.20;12.93;;;154.40;2227.20;;;;;;5073126;28;20040;-62
2020/12/26 08:04:46;;;;;;;21.45;12.93;;;154.20;2176.00;;;;;;5073108;28;20021;-58
2020/12/26 08:07:13;;;;;;;21.83;12.48;;;154.00;2201.60;;;;;;5054722;28;20040;-57
2020/12/26 08:09:47;;;;;;;22.13;13.02;;;154.20;2150.40;;;;;;5072941;28;20017;-59
2020/12/26 08:12:13;;;;;;;21.30;12.80;;;153.80;2201.60;;;;;;5054880;28;20021;-56
2020/12/26 08:14:39;;;;;;;22.17;13.70;;;128.90;2252.80;;;;;;5073135;28;20098;-57
2020/12/26 08:17:06;;;;;;;21.52;13.05;;;153.70;2227.20;;;;;;5054813;28;20039;-54
2020/12/26 08:19:34;;;;;;;22.58;13.90;;;153.80;2227.20;;;;;;5073226;28;20063;-60
2020/12/26 08:21:59;;;;;;;22.00;13.90;;;153.80;2227.20;;;;;;5072033;28;20475;-58
2020/12/26 08:24:25;;;;;;;22.45;14.15;;;153.90;2227.20;;;;;;5072930;28;20269;-55
2020/12/26 08:26:55;;;;;;;23.15;13.98;;;154.00;2201.60;;;;;;5072764;28;20107;-57
2020/12/26 08:29:29;;;;;;;32.13;16.67;;;153.90;2201.60;;;;;;5072601;28;20099;-56
2020/12/26 08:32:00;;;;;;;30.20;17.02;;;154.10;2201.60;;;;;;5053868;28;20024;-55
2020/12/26 08:34:47;;;;;;;25.60;15.18;;;154.10;2252.80;;;;;;5072573;28;20129;-55
2020/12/26 08:37:30;;;;;;;29.83;15.65;;;153.90;2201.60;;;;;;5066438;28;20080;-55
2020/12/26 08:39:59;;;;;;;33.03;17.80;;;154.20;2201.60;;;;;;5072647;28;20021;-56
2020/12/26 08:42:27;;;;;;;29.65;15.82;;;154.40;2201.60;;;;;;5072388;28;20040;-56
2020/12/26 08:44:52;;;;;;;31.90;17.10;;;154.10;2176.00;;;;;;5071262;28;20378;-55
2020/12/26 08:47:31;;;;;;;27.50;15.55;;;154.00;2201.60;;;;;;5072176;28;20261;-55
2020/12/26 08:49:57;;;;;;;;;;;154.30;2176.00;;;;;;5072983;28;20021;-55
2020/12/26 08:52:26;;;;;;;25.25;14.18;;;154.30;2150.40;;;;;;5072361;28;19911;-57
2020/12/26 08:55:05;;;;;;;23.85;14.88;;;154.00;2124.80;;;;;;5072527;28;20028;-56
2020/12/26 08:57:31;;;;;;;29.98;17.95;;;154.00;2150.40;;;;;;5072417;28;20185;-57
2020/12/26 09:00:16;;;;;;;28.50;16.48;;;154.20;2124.80;;;;;;5072533;28;20411;-55
2020/12/26 09:02:52;;;;;;;24.60;14.73;;;154.00;2150.40;;;;;;5072109;28;20052;-57
2020/12/26 09:05:31;;;;;;;26.42;15.48;;;153.70;2176.00;;;;;;5072204;28;20039;-57
2020/12/26 09:08:14;;;;;;;36.92;19.45;;;153.60;2201.60;;;;;;5072565;28;20044;-56
2020/12/26 09:10:41;;;;;;;26.42;14.95;;;153.70;2201.60;;;;;;5070947;28;20024;-58
2020/12/26 09:13:08;;;;;;;27.05;13.85;;;128.90;2201.60;;;;;;5072402;28;20021;-57
2020/12/26 09:15:51;;;;;;;23.30;13.98;;;128.60;2150.40;;;;;;5071558;28;20024;-57
2020/12/26 09:18:22;;;;;;;25.70;13.82;;;153.60;2150.40;;;;;;5069319;28;20020;-57
2020/12/26 09:20:58;;;;;;;26.80;14.73;;;153.60;2150.40;;;;;;5072018;28;20433;-57
2020/12/26 09:23:29;;;;;;;24.85;13.95;;;153.60;2150.40;;;;;;5071364;28;20044;-57
2020/12/26 09:26:08;;;;;;;25.13;14.48;;;128.90;2124.80;;;;;;5071327;28;20025;-57
2020/12/26 09:28:50;;;;;;;23.45;13.23;;;154.00;2124.80;;;;;;5071757;28;20020;-58
2020/12/26 09:31:22;;;;;;;22.35;13.43;;;154.00;2099.20;;;;;;5071245;28;20039;-57
2020/12/26 09:33:48;;;;;;;25.85;12.60;;;153.80;2124.80;;;;;;5073534;28;20009;-56
2020/12/26 09:36:19;;;;;;;25.23;13.02;;;153.60;2124.80;;;;;;5075936;28;20028;-57
2020/12/26 09:38:46;;;;;;;19.00;12.02;;;153.80;2150.40;;;;;;5075768;28;20024;-57
2020/12/26 09:41:48;;;;;;;18.77;11.45;;;154.00;2150.40;;;;;;5075828;28;20021;-58
2020/12/26 09:44:14;;;;;;;19.50;11.68;;;153.70;2124.80;;;;;;5074213;28;20078;-59
2020/12/26 09:46:41;;;;;;;19.10;12.45;;;153.70;2124.80;;;;;;5076043;28;20028;-57
2020/12/26 09:49:08;;;;;;;21.70;12.45;;;153.70;2099.20;;;;;;5075966;28;20036;-58
2020/12/26 09:51:33;;;;;;;20.63;11.13;;;128.90;2099.20;;;;;;5075535;28;20087;-57
2020/12/26 09:53:59;;;;;;;18.98;10.95;;;153.80;2099.20;;;;;;5075566;28;20063;-55
2020/12/26 09:56:26;;;;;;;17.38;11.40;;;153.80;2099.20;;;;;;5074605;28;20040;-56
2020/12/26 09:58:52;;;;;;;17.63;9.80;;;153.70;2073.60;;;;;;5073427;28;20029;-57
2020/12/26 10:01:20;;;;;;;16.73;10.35;;;128.80;2099.20;;;;;;5073238;28;20542;-57
2020/12/26 10:03:47;;;;;;;18.52;10.73;;;128.50;2124.80;;;;;;5074428;28;20405;-58
2020/12/26 10:06:18;;;;;;;22.35;12.75;;;128.70;2150.40;;;;;;5074518;28;20494;-59
2020/12/26 10:08:45;;;;;;;18.45;10.57;;;128.70;2124.80;;;;;;5075627;28;20028;-57
2020/12/26 10:11:12;;;;;;;17.75;10.57;;;153.60;2124.80;;;;;;5074958;28;20466;-57
2020/12/26 10:13:38;;;;;;;19.10;10.55;;;153.60;2099.20;;;;;;5075605;28;20385;-56
2020/12/26 10:16:04;;;;;;;15.88;9.60;;;128.90;2099.20;;;;;;5075021;28;20032;-57
2020/12/26 10:18:30;;;;;;;16.35;10.75;;;128.80;2099.20;;;;;;5074135;28;20078;-56
2020/12/26 10:20:56;;;;;;;16.02;9.70;;;128.80;2124.80;;;;;;5075075;28;20016;-58
2020/12/26 10:23:22;;;;;;;16.13;10.10;;;128.80;2099.20;;;;;;5075276;28;20036;-55
2020/12/26 10:25:49;;;;;;;20.60;11.85;;;128.50;2099.20;;;;;;5075193;28;20039;-58
2020/12/26 10:28:14;;;;;;;19.50;11.00;;;128.60;2150.40;;;;;;5074894;28;20104;-58
2020/12/26 10:30:40;;;;;;;17.15;10.57;;;128.70;2099.20;;;;;;5074836;28;20099;-58
2020/12/26 10:33:06;;;;;;;17.80;10.40;;;128.50;2099.20;;;;;;5074560;28;20539;-56
2020/12/26 10:35:31;;;;;;;24.27;11.60;;;128.60;2099.20;;;;;;5074400;28;20021;-56
2020/12/26 10:37:57;;;;;;;22.40;12.68;;;128.80;2124.80;;;;;;5074559;28;20021;-56
2020/12/26 10:40:23;;;;;;;21.25;12.10;;;128.90;2073.60;;;;;;5074396;28;20377;-56
2020/12/26 10:42:48;;;;;;;19.92;12.57;;;153.70;2048.00;;;;;;5074695;28;20032;-56
2020/12/26 10:45:14;;;;;;;190.77;125.60;;;153.60;2048.00;;;;;;5073561;28;20425;-56
2020/12/26 10:47:40;;;;;;;50.22;35.40;;;128.90;2073.60;;;;;;5073585;28;20079;-56
2020/12/26 10:50:05;;;;;;;28.52;24.77;;;153.70;2073.60;;;;;;5074556;28;20028;-55
2020/12/26 10:52:32;;;;;;;18.67;11.73;;;128.90;2048.00;;;;;;5074360;28;20016;-56
2020/12/26 10:54:58;;;;;;;17.90;12.05;;;153.60;2048.00;;;;;;5074478;28;20382;-55
2020/12/26 10:57:24;;;;;;;15.30;9.60;;;153.70;2073.60;;;;;;5073820;28;20016;-56
2020/12/26 10:59:50;;;;;;;17.00;9.95;;;153.70;2048.00;;;;;;5074344;28;20025;-57
2020/12/26 11:02:15;;;;;;;15.65;9.77;;;153.90;2048.00;;;;;;5073575;28;20137;-55
2020/12/26 11:04:41;;;;;;;14.95;9.00;;;154.20;1971.20;;;;;;5073766;28;20013;-56
2020/12/26 11:07:07;;;;;;;16.52;9.55;;;154.00;1971.20;;;;;;5074083;28;20061;-56
2020/12/26 11:09:32;;;;;;;16.98;9.40;;;153.80;1996.80;;;;;;5073446;28;20025;-56
2020/12/26 11:11:58;;;;;;;14.90;9.38;;;153.90;2022.40;;;;;;5074112;28;20070;-57
2020/12/26 11:14:24;;;;;;;17.60;10.15;;;154.00;1996.80;;;;;;5074533;28;20489;-57
2020/12/26 11:16:54;;;;;;;17.75;9.45;;;154.00;2022.40;;;;;;5073986;28;20036;-55
2020/12/26 11:19:20;;;;;;;16.83;10.18;;;153.70;2048.00;;;;;;5073809;28;20462;-56
2020/12/26 11:21:53;;;;;;;15.90;9.68;;;153.70;2022.40;;;;;;5073772;28;20016;-57
2020/12/26 11:24:19;;;;;;;15.60;10.07;;;154.10;1996.80;;;;;;5070336;28;20469;-57
2020/12/26 11:26:48;;;;;;;15.05;9.20;;;153.90;1996.80;;;;;;5072017;28;20039;-54
2020/12/26 11:29:14;;;;;;;;;;;153.90;2022.40;;;;;;5073561;28;20024;-54
2020/12/26 11:31:40;;;;;;;19.02;9.57;;;153.80;1996.80;;;;;;5072509;28;19916;-56
2020/12/26 11:34:06;;;;;;;20.33;10.30;;;153.90;2073.60;;;;;;5073429;28;20417;-55
2020/12/26 11:36:32;;;;;;;21.33;10.02;;;154.20;2022.40;;;;;;5072957;28;20071;-54
2020/12/26 11:38:58;;;;;;;19.38;10.57;;;154.10;1996.80;;;;;;5073324;28;20020;-56
2020/12/26 11:41:28;;;;;;;17.60;10.55;;;154.20;2227.20;;;;;;5073078;28;20024;-54
2020/12/26 11:43:55;;;;;;;19.40;10.35;;;153.70;2022.40;;;;;;5073187;28;20382;-54
2020/12/26 11:46:21;;;;;;;21.20;11.80;;;153.90;2048.00;;;;;;5072774;28;20412;-54
2020/12/26 11:48:47;;;;;;;20.85;11.98;;;154.00;2048.00;;;;;;5072450;28;20032;-54
2020/12/26 11:51:13;;;;;;;19.17;11.90;;;154.20;2048.00;;;;;;5072853;28;20217;-53
2020/12/26 11:53:39;;;;;;;19.95;11.45;;;154.50;1996.80;;;;;;5072294;28;20064;-54
2020/12/26 11:56:09;;;;;;;22.00;13.30;;;154.30;2022.40;;;;;;5071782;28;20394;-55
2020/12/26 11:58:36;;;;;;;19.58;11.63;;;154.20;2022.40;;;;;;5072176;28;20016;-54
2020/12/26 12:01:03;;;;;;;19.38;11.38;;;179.20;1971.20;;;;;;5072995;28;20056;-56
2020/12/26 12:03:29;;;;;;;20.10;11.77;;;154.30;1996.80;;;;;;5072829;28;20032;-57
2020/12/26 12:05:55;;;;;;;19.98;11.90;;;154.10;2022.40;;;;;;5072418;28;20051;-57
2020/12/26 12:08:21;;;;;;;17.95;11.20;;;154.10;2022.40;;;;;;5071751;28;20025;-58